sensor_id;sensor_type;location;lat;lon;timestamp;P1;durP1;ratioP1;P2;durP2;ratioP2
9124;SDS011;4597;48.730;9.114;2023-04-01T00:00:18;2.90;;;0.90;;
9124;SDS011;4597;48.730;9.114;2023-04-01T00:02:45;2.40;;;0.73;;
9124;SDS011;4597;48.730;9.114;2023-04-01T00:05:10;2.13;;;1.27;;
9124;SDS011;4597;48.730;9.114;2023-04-01T00:07:37;3.63;;;1.50;;
9124;SDS011;4597;48.730;9.114;2023-04-01T00:10:03;1.23;;;0.87;;
9124;SDS011;4597;48.730;9.114;2023-04-01T00:12:30;1.03;;;0.90;;
9124;SDS011;4597;48.730;9.114;2023-04-01T00:14:56;1.77;;;1.20;;
9124;SDS011;4597;48.730;9.114;2023-04-01T00:17:21;1.13;;;0.70;;
9124;SDS011;4597;48.730;9.114;2023-04-01T00:19:47;1.50;;;0.70;;
9124;SDS011;4597;48.730;9.114;2023-04-01T00:22:13;1.63;;;0.90;;
9124;SDS011;4597;48.730;9.114;2023-04-01T00:24:38;2.00;;;1.00;;
9124;SDS011;4597;48.730;9.114;2023-04-01T00:27:04;2.50;;;1.10;;
9124;SDS011;4597;48.730;9.114;2023-04-01T00:29:30;1.07;;;0.80;;
9124;SDS011;4597;48.730;9.114;2023-04-01T00:31:56;4.97;;;1.50;;
9124;SDS011;4597;48.730;9.114;2023-04-01T00:34:22;2.80;;;1.23;;
9124;SDS011;4597;48.730;9.114;2023-04-01T00:36:49;1.57;;;0.90;;
9124;SDS011;4597;48.730;9.114;2023-04-01T00:39:15;1.73;;;1.07;;
9124;SDS011;4597;48.730;9.114;2023-04-01T00:41:41;2.40;;;1.00;;
9124;SDS011;4597;48.730;9.114;2023-04-01T00:46:46;1.73;;;1.10;;
9124;SDS011;4597;48.730;9.114;2023-04-01T00:49:12;1.53;;;0.80;;
9124;SDS011;4597;48.730;9.114;2023-04-01T00:51:39;2.77;;;1.30;;
9124;SDS011;4597;48.730;9.114;2023-04-01T00:54:06;3.20;;;1.10;;
9124;SDS011;4597;48.730;9.114;2023-04-01T00:56:37;3.97;;;1.10;;
9124;SDS011;4597;48.730;9.114;2023-04-01T00:59:14;1.03;;;0.77;;
9124;SDS011;4597;48.730;9.114;2023-04-01T01:01:45;2.87;;;1.03;;
9124;SDS011;4597;48.730;9.114;2023-04-01T01:04:27;2.60;;;0.93;;
9124;SDS011;4597;48.730;9.114;2023-04-01T01:07:04;1.67;;;0.90;;
9124;SDS011;4597;48.730;9.114;2023-04-01T01:12:45;2.03;;;0.90;;
9124;SDS011;4597;48.730;9.114;2023-04-01T01:15:12;1.30;;;0.80;;
9124;SDS011;4597;48.730;9.114;2023-04-01T01:18:03;1.47;;;0.77;;
9124;SDS011;4597;48.730;9.114;2023-04-01T01:26:14;2.53;;;1.00;;
9124;SDS011;4597;48.730;9.114;2023-04-01T01:34:53;1.90;;;0.90;;
9124;SDS011;4597;48.730;9.114;2023-04-01T01:37:39;1.83;;;0.80;;
9124;SDS011;4597;48.730;9.114;2023-04-01T01:40:07;1.17;;;0.90;;
9124;SDS011;4597;48.730;9.114;2023-04-01T01:42:37;2.20;;;0.80;;
9124;SDS011;4597;48.730;9.114;2023-04-01T01:45:05;2.20;;;0.80;;
9124;SDS011;4597;48.730;9.114;2023-04-01T01:47:34;1.33;;;1.10;;
9124;SDS011;4597;48.730;9.114;2023-04-01T01:50:00;0.87;;;0.87;;
9124;SDS011;4597;48.730;9.114;2023-04-01T01:52:28;1.27;;;0.80;;
9124;SDS011;4597;48.730;9.114;2023-04-01T01:54:55;1.00;;;0.73;;
9124;SDS011;4597;48.730;9.114;2023-04-01T01:57:34;1.97;;;0.70;;
9124;SDS011;4597;48.730;9.114;2023-04-01T02:00:05;0.87;;;0.70;;
9124;SDS011;4597;48.730;9.114;2023-04-01T02:02:38;1.20;;;0.80;;
9124;SDS011;4597;48.730;9.114;2023-04-01T02:05:05;2.23;;;0.70;;
9124;SDS011;4597;48.730;9.114;2023-04-01T02:07:34;2.47;;;0.87;;
9124;SDS011;4597;48.730;9.114;2023-04-01T02:10:02;0.80;;;0.60;;
9124;SDS011;4597;48.730;9.114;2023-04-01T02:12:28;0.63;;;0.50;;
9124;SDS011;4597;48.730;9.114;2023-04-01T02:14:56;1.30;;;0.87;;
9124;SDS011;4597;48.730;9.114;2023-04-01T02:17:30;1.27;;;0.70;;
9124;SDS011;4597;48.730;9.114;2023-04-01T02:20:08;2.00;;;0.77;;
9124;SDS011;4597;48.730;9.114;2023-04-01T02:22:43;1.70;;;0.80;;
9124;SDS011;4597;48.730;9.114;2023-04-01T02:25:19;1.13;;;0.70;;
9124;SDS011;4597;48.730;9.114;2023-04-01T02:27:48;1.63;;;0.80;;
9124;SDS011;4597;48.730;9.114;2023-04-01T02:30:14;2.07;;;1.00;;
9124;SDS011;4597;48.730;9.114;2023-04-01T02:32:42;1.77;;;1.10;;
9124;SDS011;4597;48.730;9.114;2023-04-01T02:35:08;1.67;;;0.80;;
9124;SDS011;4597;48.730;9.114;2023-04-01T02:37:36;1.80;;;0.83;;
9124;SDS011;4597;48.730;9.114;2023-04-01T02:40:03;0.70;;;0.70;;
9124;SDS011;4597;48.730;9.114;2023-04-01T02:42:31;0.77;;;0.43;;
9124;SDS011;4597;48.730;9.114;2023-04-01T02:44:57;0.60;;;0.60;;
9124;SDS011;4597;48.730;9.114;2023-04-01T02:47:22;1.83;;;0.77;;
9124;SDS011;4597;48.730;9.114;2023-04-01T02:49:48;0.50;;;0.50;;
9124;SDS011;4597;48.730;9.114;2023-04-01T02:52:13;0.60;;;0.60;;
9124;SDS011;4597;48.730;9.114;2023-04-01T02:54:39;0.47;;;0.47;;
9124;SDS011;4597;48.730;9.114;2023-04-01T02:57:05;0.57;;;0.57;;
9124;SDS011;4597;48.730;9.114;2023-04-01T02:59:31;1.67;;;0.90;;
9124;SDS011;4597;48.730;9.114;2023-04-01T03:01:56;2.30;;;0.80;;
9124;SDS011;4597;48.730;9.114;2023-04-01T03:04:22;0.80;;;0.60;;
9124;SDS011;4597;48.730;9.114;2023-04-01T03:06:47;0.80;;;0.80;;
9124;SDS011;4597;48.730;9.114;2023-04-01T03:09:13;0.83;;;0.83;;
9124;SDS011;4597;48.730;9.114;2023-04-01T03:11:39;1.17;;;0.60;;
9124;SDS011;4597;48.730;9.114;2023-04-01T03:14:05;1.70;;;0.60;;
9124;SDS011;4597;48.730;9.114;2023-04-01T03:16:31;0.60;;;0.60;;
9124;SDS011;4597;48.730;9.114;2023-04-01T03:18:57;3.13;;;0.77;;
9124;SDS011;4597;48.730;9.114;2023-04-01T03:21:24;0.90;;;0.70;;
9124;SDS011;4597;48.730;9.114;2023-04-01T03:23:50;0.60;;;0.60;;
9124;SDS011;4597;48.730;9.114;2023-04-01T03:26:16;1.73;;;0.60;;
9124;SDS011;4597;48.730;9.114;2023-04-01T03:28:43;1.87;;;0.73;;
9124;SDS011;4597;48.730;9.114;2023-04-01T03:31:09;0.83;;;0.60;;
9124;SDS011;4597;48.730;9.114;2023-04-01T03:33:35;0.77;;;0.53;;
9124;SDS011;4597;48.730;9.114;2023-04-01T03:36:00;2.37;;;0.70;;
9124;SDS011;4597;48.730;9.114;2023-04-01T03:38:26;1.90;;;0.70;;
9124;SDS011;4597;48.730;9.114;2023-04-01T03:40:51;0.30;;;0.30;;
9124;SDS011;4597;48.730;9.114;2023-04-01T03:43:17;2.83;;;0.97;;
9124;SDS011;4597;48.730;9.114;2023-04-01T03:45:43;1.70;;;0.70;;
9124;SDS011;4597;48.730;9.114;2023-04-01T03:48:10;3.10;;;0.90;;
9124;SDS011;4597;48.730;9.114;2023-04-01T03:50:35;1.03;;;0.60;;
9124;SDS011;4597;48.730;9.114;2023-04-01T03:53:01;0.90;;;0.60;;
9124;SDS011;4597;48.730;9.114;2023-04-01T03:55:26;0.67;;;0.60;;
9124;SDS011;4597;48.730;9.114;2023-04-01T03:57:52;1.80;;;0.70;;
9124;SDS011;4597;48.730;9.114;2023-04-01T04:00:17;0.97;;;0.80;;
9124;SDS011;4597;48.730;9.114;2023-04-01T04:02:43;1.17;;;0.67;;
9124;SDS011;4597;48.730;9.114;2023-04-01T04:05:09;2.80;;;0.73;;
9124;SDS011;4597;48.730;9.114;2023-04-01T04:07:35;2.37;;;0.90;;
9124;SDS011;4597;48.730;9.114;2023-04-01T04:10:01;1.20;;;1.00;;
9124;SDS011;4597;48.730;9.114;2023-04-01T04:12:27;0.80;;;0.63;;
9124;SDS011;4597;48.730;9.114;2023-04-01T04:14:52;3.23;;;1.30;;
9124;SDS011;4597;48.730;9.114;2023-04-01T04:17:17;1.60;;;1.33;;
9124;SDS011;4597;48.730;9.114;2023-04-01T04:19:43;2.73;;;1.07;;
9124;SDS011;4597;48.730;9.114;2023-04-01T04:22:08;2.03;;;1.13;;
9124;SDS011;4597;48.730;9.114;2023-04-01T04:24:34;1.63;;;0.70;;
9124;SDS011;4597;48.730;9.114;2023-04-01T04:27:01;1.17;;;0.80;;
9124;SDS011;4597;48.730;9.114;2023-04-01T04:29:27;1.83;;;0.90;;
9124;SDS011;4597;48.730;9.114;2023-04-01T04:31:52;0.60;;;0.60;;
9124;SDS011;4597;48.730;9.114;2023-04-01T04:34:18;0.73;;;0.60;;
9124;SDS011;4597;48.730;9.114;2023-04-01T04:36:43;1.03;;;0.77;;
9124;SDS011;4597;48.730;9.114;2023-04-01T04:39:09;1.60;;;0.70;;
9124;SDS011;4597;48.730;9.114;2023-04-01T04:41:36;1.80;;;0.90;;
9124;SDS011;4597;48.730;9.114;2023-04-01T04:44:02;2.27;;;0.80;;
9124;SDS011;4597;48.730;9.114;2023-04-01T04:46:28;1.00;;;0.77;;
9124;SDS011;4597;48.730;9.114;2023-04-01T04:48:53;1.07;;;0.63;;
9124;SDS011;4597;48.730;9.114;2023-04-01T04:51:19;2.83;;;0.73;;
9124;SDS011;4597;48.730;9.114;2023-04-01T04:53:45;1.13;;;0.70;;
9124;SDS011;4597;48.730;9.114;2023-04-01T04:56:11;3.40;;;1.10;;
9124;SDS011;4597;48.730;9.114;2023-04-01T04:58:37;0.80;;;0.80;;
9124;SDS011;4597;48.730;9.114;2023-04-01T05:01:07;2.03;;;0.83;;
9124;SDS011;4597;48.730;9.114;2023-04-01T05:03:35;2.13;;;0.87;;
9124;SDS011;4597;48.730;9.114;2023-04-01T05:06:01;0.80;;;0.80;;
9124;SDS011;4597;48.730;9.114;2023-04-01T05:08:26;1.43;;;0.80;;
9124;SDS011;4597;48.730;9.114;2023-04-01T05:10:52;1.67;;;0.90;;
9124;SDS011;4597;48.730;9.114;2023-04-01T05:13:17;1.27;;;0.60;;
9124;SDS011;4597;48.730;9.114;2023-04-01T05:15:43;0.77;;;0.77;;
9124;SDS011;4597;48.730;9.114;2023-04-01T05:18:08;0.97;;;0.70;;
9124;SDS011;4597;48.730;9.114;2023-04-01T05:20:34;2.77;;;0.90;;
9124;SDS011;4597;48.730;9.114;2023-04-01T05:22:59;1.00;;;0.70;;
9124;SDS011;4597;48.730;9.114;2023-04-01T05:25:25;2.70;;;1.17;;
9124;SDS011;4597;48.730;9.114;2023-04-01T05:27:51;0.97;;;0.80;;
9124;SDS011;4597;48.730;9.114;2023-04-01T05:30:16;1.40;;;0.70;;
9124;SDS011;4597;48.730;9.114;2023-04-01T05:32:42;1.97;;;0.90;;
9124;SDS011;4597;48.730;9.114;2023-04-01T05:35:08;1.13;;;0.97;;
9124;SDS011;4597;48.730;9.114;2023-04-01T05:37:35;2.17;;;0.70;;
9124;SDS011;4597;48.730;9.114;2023-04-01T05:40:00;1.13;;;0.80;;
9124;SDS011;4597;48.730;9.114;2023-04-01T05:42:26;1.93;;;0.80;;
9124;SDS011;4597;48.730;9.114;2023-04-01T05:44:52;0.70;;;0.63;;
9124;SDS011;4597;48.730;9.114;2023-04-01T05:47:17;2.10;;;0.93;;
9124;SDS011;4597;48.730;9.114;2023-04-01T05:49:43;2.00;;;1.00;;
9124;SDS011;4597;48.730;9.114;2023-04-01T05:52:08;1.53;;;0.60;;
9124;SDS011;4597;48.730;9.114;2023-04-01T05:54:34;1.23;;;0.70;;
9124;SDS011;4597;48.730;9.114;2023-04-01T05:57:00;0.80;;;0.80;;
9124;SDS011;4597;48.730;9.114;2023-04-01T05:59:25;0.80;;;0.80;;
9124;SDS011;4597;48.730;9.114;2023-04-01T06:01:51;0.80;;;0.60;;
9124;SDS011;4597;48.730;9.114;2023-04-01T06:04:17;0.97;;;0.90;;
9124;SDS011;4597;48.730;9.114;2023-04-01T06:06:43;1.97;;;0.87;;
9124;SDS011;4597;48.730;9.114;2023-04-01T06:09:16;1.00;;;0.70;;
9124;SDS011;4597;48.730;9.114;2023-04-01T06:11:51;3.90;;;1.03;;
9124;SDS011;4597;48.730;9.114;2023-04-01T06:28:56;1.83;;;0.80;;
9124;SDS011;4597;48.730;9.114;2023-04-01T06:31:40;1.40;;;0.50;;
9124;SDS011;4597;48.730;9.114;2023-04-01T06:34:36;0.97;;;0.90;;
9124;SDS011;4597;48.730;9.114;2023-04-01T06:37:43;0.67;;;0.60;;
9124;SDS011;4597;48.730;9.114;2023-04-01T06:40:22;0.83;;;0.70;;
9124;SDS011;4597;48.730;9.114;2023-04-01T06:45:43;0.77;;;0.63;;
9124;SDS011;4597;48.730;9.114;2023-04-01T06:51:20;5.27;;;1.00;;
9124;SDS011;4597;48.730;9.114;2023-04-01T06:53:53;0.90;;;0.60;;
9124;SDS011;4597;48.730;9.114;2023-04-01T06:56:40;0.57;;;0.50;;
9124;SDS011;4597;48.730;9.114;2023-04-01T06:59:17;1.60;;;0.63;;
9124;SDS011;4597;48.730;9.114;2023-04-01T07:01:49;1.07;;;0.60;;
9124;SDS011;4597;48.730;9.114;2023-04-01T07:04:21;1.83;;;0.60;;
9124;SDS011;4597;48.730;9.114;2023-04-01T07:06:56;3.00;;;0.73;;
9124;SDS011;4597;48.730;9.114;2023-04-01T07:09:26;3.77;;;0.87;;
9124;SDS011;4597;48.730;9.114;2023-04-01T07:11:56;5.17;;;0.93;;
9124;SDS011;4597;48.730;9.114;2023-04-01T07:14:36;1.43;;;0.70;;
9124;SDS011;4597;48.730;9.114;2023-04-01T07:17:19;2.10;;;0.40;;
9124;SDS011;4597;48.730;9.114;2023-04-01T07:19:59;2.73;;;0.43;;
9124;SDS011;4597;48.730;9.114;2023-04-01T07:22:44;1.50;;;0.70;;
9124;SDS011;4597;48.730;9.114;2023-04-01T07:28:17;3.73;;;0.70;;
9124;SDS011;4597;48.730;9.114;2023-04-01T07:30:48;5.00;;;0.60;;
9124;SDS011;4597;48.730;9.114;2023-04-01T07:33:39;0.50;;;0.47;;
9124;SDS011;4597;48.730;9.114;2023-04-01T07:36:10;0.50;;;0.50;;
9124;SDS011;4597;48.730;9.114;2023-04-01T07:41:42;2.50;;;0.50;;
9124;SDS011;4597;48.730;9.114;2023-04-01T07:46:57;2.17;;;0.67;;
9124;SDS011;4597;48.730;9.114;2023-04-01T07:52:21;0.57;;;0.57;;
9124;SDS011;4597;48.730;9.114;2023-04-01T07:54:59;0.47;;;0.47;;
9124;SDS011;4597;48.730;9.114;2023-04-01T07:57:43;0.40;;;0.40;;
9124;SDS011;4597;48.730;9.114;2023-04-01T08:00:18;0.40;;;0.40;;
9124;SDS011;4597;48.730;9.114;2023-04-01T08:08:58;0.53;;;0.53;;
9124;SDS011;4597;48.730;9.114;2023-04-01T08:11:14;1.23;;;0.90;;
9124;SDS011;4597;48.730;9.114;2023-04-01T08:14:08;0.83;;;0.70;;
9124;SDS011;4597;48.730;9.114;2023-04-01T08:16:52;0.70;;;0.70;;
9124;SDS011;4597;48.730;9.114;2023-04-01T08:19:45;3.77;;;0.70;;
9124;SDS011;4597;48.730;9.114;2023-04-01T08:22:20;0.63;;;0.50;;
9124;SDS011;4597;48.730;9.114;2023-04-01T08:24:51;0.60;;;0.60;;
9124;SDS011;4597;48.730;9.114;2023-04-01T08:29:53;1.97;;;1.10;;
9124;SDS011;4597;48.730;9.114;2023-04-01T08:32:32;2.33;;;0.63;;
9124;SDS011;4597;48.730;9.114;2023-04-01T08:35:37;0.93;;;0.80;;
9124;SDS011;4597;48.730;9.114;2023-04-01T08:38:00;0.60;;;0.60;;
9124;SDS011;4597;48.730;9.114;2023-04-01T08:55:26;2.17;;;1.30;;
9124;SDS011;4597;48.730;9.114;2023-04-01T09:03:41;2.00;;;1.67;;
9124;SDS011;4597;48.730;9.114;2023-04-01T09:12:02;1.20;;;0.40;;
9124;SDS011;4597;48.730;9.114;2023-04-01T09:17:42;2.07;;;0.50;;
9124;SDS011;4597;48.730;9.114;2023-04-01T09:20:31;0.40;;;0.40;;
9124;SDS011;4597;48.730;9.114;2023-04-01T09:25:46;0.50;;;0.50;;
9124;SDS011;4597;48.730;9.114;2023-04-01T09:28:42;0.30;;;0.30;;
9124;SDS011;4597;48.730;9.114;2023-04-01T09:31:25;0.47;;;0.20;;
9124;SDS011;4597;48.730;9.114;2023-04-01T09:37:13;1.20;;;0.27;;
9124;SDS011;4597;48.730;9.114;2023-04-01T09:45:00;0.33;;;0.30;;
9124;SDS011;4597;48.730;9.114;2023-04-01T09:53:47;0.30;;;0.30;;
9124;SDS011;4597;48.730;9.114;2023-04-01T09:59:36;0.40;;;0.40;;
9124;SDS011;4597;48.730;9.114;2023-04-01T10:13:12;0.47;;;0.23;;
9124;SDS011;4597;48.730;9.114;2023-04-01T10:15:56;0.13;;;0.13;;
9124;SDS011;4597;48.730;9.114;2023-04-01T10:18:37;0.30;;;0.30;;
9124;SDS011;4597;48.730;9.114;2023-04-01T10:24:35;0.30;;;0.30;;
9124;SDS011;4597;48.730;9.114;2023-04-01T10:33:11;0.33;;;0.33;;
9124;SDS011;4597;48.730;9.114;2023-04-01T10:47:19;0.40;;;0.40;;
9124;SDS011;4597;48.730;9.114;2023-04-01T10:52:57;0.53;;;0.20;;
9124;SDS011;4597;48.730;9.114;2023-04-01T10:56:08;0.30;;;0.30;;
9124;SDS011;4597;48.730;9.114;2023-04-01T11:04:53;0.30;;;0.30;;
9124;SDS011;4597;48.730;9.114;2023-04-01T11:10:46;0.40;;;0.40;;
9124;SDS011;4597;48.730;9.114;2023-04-01T11:22:23;0.67;;;0.50;;
9124;SDS011;4597;48.730;9.114;2023-04-01T11:25:16;0.30;;;0.30;;
9124;SDS011;4597;48.730;9.114;2023-04-01T11:33:46;0.87;;;0.30;;
9124;SDS011;4597;48.730;9.114;2023-04-01T11:36:33;0.20;;;0.20;;
9124;SDS011;4597;48.730;9.114;2023-04-01T11:39:17;0.20;;;0.20;;
9124;SDS011;4597;48.730;9.114;2023-04-01T11:41:58;0.40;;;0.40;;
9124;SDS011;4597;48.730;9.114;2023-04-01T11:44:28;0.30;;;0.30;;
9124;SDS011;4597;48.730;9.114;2023-04-01T11:50:29;0.20;;;0.20;;
9124;SDS011;4597;48.730;9.114;2023-04-01T11:53:27;0.30;;;0.30;;
9124;SDS011;4597;48.730;9.114;2023-04-01T11:58:52;0.20;;;0.20;;
9124;SDS011;4597;48.730;9.114;2023-04-01T12:04:22;0.30;;;0.30;;
9124;SDS011;4597;48.730;9.114;2023-04-01T12:07:00;0.30;;;0.30;;
9124;SDS011;4597;48.730;9.114;2023-04-01T12:09:49;0.13;;;0.13;;
9124;SDS011;4597;48.730;9.114;2023-04-01T12:18:32;0.40;;;0.40;;
9124;SDS011;4597;48.730;9.114;2023-04-01T12:26:43;0.40;;;0.40;;
9124;SDS011;4597;48.730;9.114;2023-04-01T12:32:48;0.30;;;0.30;;
9124;SDS011;4597;48.730;9.114;2023-04-01T12:35:43;0.40;;;0.40;;
9124;SDS011;4597;48.730;9.114;2023-04-01T12:41:14;0.50;;;0.50;;
9124;SDS011;4597;48.730;9.114;2023-04-01T12:46:30;0.30;;;0.30;;
9124;SDS011;4597;48.730;9.114;2023-04-01T12:49:16;0.50;;;0.50;;
9124;SDS011;4597;48.730;9.114;2023-04-01T12:52:11;0.40;;;0.40;;
9124;SDS011;4597;48.730;9.114;2023-04-01T12:55:00;0.40;;;0.40;;
9124;SDS011;4597;48.730;9.114;2023-04-01T13:00:30;0.30;;;0.30;;
9124;SDS011;4597;48.730;9.114;2023-04-01T13:08:55;0.47;;;0.40;;
9124;SDS011;4597;48.730;9.114;2023-04-01T13:12:05;0.23;;;0.23;;
9124;SDS011;4597;48.730;9.114;2023-04-01T13:17:53;0.73;;;0.40;;
9124;SDS011;4597;48.730;9.114;2023-04-01T13:20:32;1.00;;;1.00;;
9124;SDS011;4597;48.730;9.114;2023-04-01T13:23:14;0.37;;;0.37;;
9124;SDS011;4597;48.730;9.114;2023-04-01T13:26:13;0.50;;;0.50;;
9124;SDS011;4597;48.730;9.114;2023-04-01T13:28:39;1.07;;;1.03;;
9124;SDS011;4597;48.730;9.114;2023-04-01T13:33:47;0.40;;;0.40;;
9124;SDS011;4597;48.730;9.114;2023-04-01T13:42:16;0.30;;;0.30;;
9124;SDS011;4597;48.730;9.114;2023-04-01T13:55:53;0.40;;;0.40;;
9124;SDS011;4597;48.730;9.114;2023-04-01T14:01:31;0.30;;;0.30;;
9124;SDS011;4597;48.730;9.114;2023-04-01T14:04:08;0.40;;;0.40;;
9124;SDS011;4597;48.730;9.114;2023-04-01T14:06:53;0.50;;;0.50;;
9124;SDS011;4597;48.730;9.114;2023-04-01T14:09:45;0.50;;;0.50;;
9124;SDS011;4597;48.730;9.114;2023-04-01T14:12:43;0.30;;;0.30;;
9124;SDS011;4597;48.730;9.114;2023-04-01T14:20:55;0.50;;;0.50;;
9124;SDS011;4597;48.730;9.114;2023-04-01T14:23:41;0.40;;;0.40;;
9124;SDS011;4597;48.730;9.114;2023-04-01T14:34:15;0.40;;;0.40;;
9124;SDS011;4597;48.730;9.114;2023-04-01T14:37:03;0.57;;;0.57;;
9124;SDS011;4597;48.730;9.114;2023-04-01T14:39:48;0.30;;;0.30;;
9124;SDS011;4597;48.730;9.114;2023-04-01T14:45:32;0.73;;;0.50;;
9124;SDS011;4597;48.730;9.114;2023-04-01T14:51:01;0.30;;;0.30;;
9124;SDS011;4597;48.730;9.114;2023-04-01T14:53:33;0.30;;;0.30;;
9124;SDS011;4597;48.730;9.114;2023-04-01T14:56:03;0.30;;;0.30;;
9124;SDS011;4597;48.730;9.114;2023-04-01T14:58:41;0.33;;;0.33;;
9124;SDS011;4597;48.730;9.114;2023-04-01T15:01:25;0.40;;;0.40;;
9124;SDS011;4597;48.730;9.114;2023-04-01T15:17:19;0.43;;;0.43;;
9124;SDS011;4597;48.730;9.114;2023-04-01T15:23:02;0.47;;;0.40;;
9124;SDS011;4597;48.730;9.114;2023-04-01T15:25:51;1.20;;;0.80;;
9124;SDS011;4597;48.730;9.114;2023-04-01T15:28:28;0.63;;;0.40;;
9124;SDS011;4597;48.730;9.114;2023-04-01T15:31:11;0.50;;;0.50;;
9124;SDS011;4597;48.730;9.114;2023-04-01T15:37:33;0.33;;;0.33;;
9124;SDS011;4597;48.730;9.114;2023-04-01T15:39:44;0.80;;;0.30;;
9124;SDS011;4597;48.730;9.114;2023-04-01T15:42:41;0.50;;;0.40;;
9124;SDS011;4597;48.730;9.114;2023-04-01T15:45:29;0.57;;;0.47;;
9124;SDS011;4597;48.730;9.114;2023-04-01T15:48:10;0.50;;;0.50;;
9124;SDS011;4597;48.730;9.114;2023-04-01T15:51:11;0.97;;;0.50;;
9124;SDS011;4597;48.730;9.114;2023-04-01T16:02:29;0.50;;;0.50;;
9124;SDS011;4597;48.730;9.114;2023-04-01T16:19:21;2.33;;;0.97;;
9124;SDS011;4597;48.730;9.114;2023-04-01T16:21:53;0.60;;;0.57;;
9124;SDS011;4597;48.730;9.114;2023-04-01T16:29:48;0.50;;;0.50;;
9124;SDS011;4597;48.730;9.114;2023-04-01T16:32:38;1.00;;;0.63;;
9124;SDS011;4597;48.730;9.114;2023-04-01T16:35:33;1.90;;;0.60;;
9124;SDS011;4597;48.730;9.114;2023-04-01T16:40:42;0.50;;;0.50;;
9124;SDS011;4597;48.730;9.114;2023-04-01T16:43:14;1.33;;;0.70;;
9124;SDS011;4597;48.730;9.114;2023-04-01T16:48:58;1.03;;;0.53;;
9124;SDS011;4597;48.730;9.114;2023-04-01T16:51:26;2.07;;;0.80;;
9124;SDS011;4597;48.730;9.114;2023-04-01T16:54:04;0.80;;;0.80;;
9124;SDS011;4597;48.730;9.114;2023-04-01T16:56:49;0.97;;;0.97;;
9124;SDS011;4597;48.730;9.114;2023-04-01T16:59:21;1.13;;;0.90;;
9124;SDS011;4597;48.730;9.114;2023-04-01T17:02:08;0.87;;;0.87;;
9124;SDS011;4597;48.730;9.114;2023-04-01T17:13:16;0.60;;;0.60;;
9124;SDS011;4597;48.730;9.114;2023-04-01T17:18:46;2.47;;;1.33;;
9124;SDS011;4597;48.730;9.114;2023-04-01T17:32:47;1.33;;;0.87;;
9124;SDS011;4597;48.730;9.114;2023-04-01T17:35:27;0.90;;;0.73;;
9124;SDS011;4597;48.730;9.114;2023-04-01T17:46:56;0.70;;;0.70;;
9124;SDS011;4597;48.730;9.114;2023-04-01T17:52:35;0.50;;;0.50;;
9124;SDS011;4597;48.730;9.114;2023-04-01T17:58:03;0.60;;;0.60;;
9124;SDS011;4597;48.730;9.114;2023-04-01T18:03:40;0.70;;;0.70;;
9124;SDS011;4597;48.730;9.114;2023-04-01T18:06:36;0.83;;;0.83;;
9124;SDS011;4597;48.730;9.114;2023-04-01T18:09:25;0.80;;;0.80;;
9124;SDS011;4597;48.730;9.114;2023-04-01T18:18:50;1.40;;;0.70;;
9124;SDS011;4597;48.730;9.114;2023-04-01T18:21:41;2.17;;;1.00;;
9124;SDS011;4597;48.730;9.114;2023-04-01T18:24:40;1.10;;;1.10;;
9124;SDS011;4597;48.730;9.114;2023-04-01T18:27:22;0.90;;;0.90;;
9124;SDS011;4597;48.730;9.114;2023-04-01T18:32:56;0.90;;;0.90;;
9124;SDS011;4597;48.730;9.114;2023-04-01T18:35:45;1.30;;;0.93;;
9124;SDS011;4597;48.730;9.114;2023-04-01T18:38:31;0.90;;;0.90;;
9124;SDS011;4597;48.730;9.114;2023-04-01T18:43:56;1.20;;;0.90;;
9124;SDS011;4597;48.730;9.114;2023-04-01T18:49:54;2.30;;;0.90;;
9124;SDS011;4597;48.730;9.114;2023-04-01T18:52:37;1.47;;;1.00;;
9124;SDS011;4597;48.730;9.114;2023-04-01T18:57:50;1.90;;;1.10;;
9124;SDS011;4597;48.730;9.114;2023-04-01T19:00:25;1.73;;;1.00;;
9124;SDS011;4597;48.730;9.114;2023-04-01T19:02:55;1.60;;;0.90;;
9124;SDS011;4597;48.730;9.114;2023-04-01T19:05:48;0.90;;;0.90;;
9124;SDS011;4597;48.730;9.114;2023-04-01T19:16:26;1.20;;;1.10;;
9124;SDS011;4597;48.730;9.114;2023-04-01T19:25:07;1.30;;;1.13;;
9124;SDS011;4597;48.730;9.114;2023-04-01T19:30:22;1.97;;;1.20;;
9124;SDS011;4597;48.730;9.114;2023-04-01T19:33:02;0.80;;;0.80;;
9124;SDS011;4597;48.730;9.114;2023-04-01T19:36:03;0.80;;;0.80;;
9124;SDS011;4597;48.730;9.114;2023-04-01T19:38:43;0.90;;;0.90;;
9124;SDS011;4597;48.730;9.114;2023-04-01T19:46:55;0.83;;;0.73;;
9124;SDS011;4597;48.730;9.114;2023-04-01T19:55:00;1.20;;;1.10;;
9124;SDS011;4597;48.730;9.114;2023-04-01T20:02:55;2.13;;;1.80;;
9124;SDS011;4597;48.730;9.114;2023-04-01T20:08:07;1.80;;;1.30;;
9124;SDS011;4597;48.730;9.114;2023-04-01T20:10:46;1.77;;;1.10;;
9124;SDS011;4597;48.730;9.114;2023-04-01T20:16:04;2.03;;;1.30;;
9124;SDS011;4597;48.730;9.114;2023-04-01T20:18:36;1.00;;;1.00;;
9124;SDS011;4597;48.730;9.114;2023-04-01T20:23:41;1.30;;;1.20;;
9124;SDS011;4597;48.730;9.114;2023-04-01T20:26:32;1.07;;;0.90;;
9124;SDS011;4597;48.730;9.114;2023-04-01T20:29:07;2.10;;;1.20;;
9124;SDS011;4597;48.730;9.114;2023-04-01T20:35:18;1.13;;;0.90;;
9124;SDS011;4597;48.730;9.114;2023-04-01T20:41:03;0.87;;;0.87;;
9124;SDS011;4597;48.730;9.114;2023-04-01T20:43:52;1.23;;;1.03;;
9124;SDS011;4597;48.730;9.114;2023-04-01T20:51:43;1.10;;;1.00;;
9124;SDS011;4597;48.730;9.114;2023-04-01T20:57:38;1.43;;;1.10;;
9124;SDS011;4597;48.730;9.114;2023-04-01T21:00:36;1.30;;;1.20;;
9124;SDS011;4597;48.730;9.114;2023-04-01T21:03:45;1.10;;;1.10;;
9124;SDS011;4597;48.730;9.114;2023-04-01T21:06:28;1.40;;;1.30;;
9124;SDS011;4597;48.730;9.114;2023-04-01T21:11:46;2.53;;;1.00;;
9124;SDS011;4597;48.730;9.114;2023-04-01T21:17:09;2.93;;;1.10;;
9124;SDS011;4597;48.730;9.114;2023-04-01T21:28:59;2.23;;;1.20;;
9124;SDS011;4597;48.730;9.114;2023-04-01T21:31:57;3.60;;;1.27;;
9124;SDS011;4597;48.730;9.114;2023-04-01T21:34:58;0.90;;;0.90;;
9124;SDS011;4597;48.730;9.114;2023-04-01T21:38:03;1.87;;;1.10;;
9124;SDS011;4597;48.730;9.114;2023-04-01T21:40:55;1.13;;;0.87;;
9124;SDS011;4597;48.730;9.114;2023-04-01T22:00:12;0.70;;;0.70;;
9124;SDS011;4597;48.730;9.114;2023-04-01T22:11:23;1.10;;;0.87;;
9124;SDS011;4597;48.730;9.114;2023-04-01T22:14:12;0.83;;;0.60;;
9124;SDS011;4597;48.730;9.114;2023-04-01T22:17:06;0.70;;;0.70;;
9124;SDS011;4597;48.730;9.114;2023-04-01T22:19:55;1.20;;;0.90;;
9124;SDS011;4597;48.730;9.114;2023-04-01T22:25:46;0.90;;;0.90;;
9124;SDS011;4597;48.730;9.114;2023-04-01T22:28:37;1.73;;;1.23;;
9124;SDS011;4597;48.730;9.114;2023-04-01T22:31:10;1.27;;;0.57;;
9124;SDS011;4597;48.730;9.114;2023-04-01T22:36:24;0.80;;;0.80;;
9124;SDS011;4597;48.730;9.114;2023-04-01T22:47:24;0.70;;;0.70;;
9124;SDS011;4597;48.730;9.114;2023-04-01T22:55:12;1.10;;;0.70;;
9124;SDS011;4597;48.730;9.114;2023-04-01T22:57:47;0.73;;;0.70;;
9124;SDS011;4597;48.730;9.114;2023-04-01T23:03:01;0.57;;;0.57;;
9124;SDS011;4597;48.730;9.114;2023-04-01T23:05:55;0.73;;;0.70;;
9124;SDS011;4597;48.730;9.114;2023-04-01T23:08:31;1.03;;;0.80;;
9124;SDS011;4597;48.730;9.114;2023-04-01T23:11:23;1.73;;;0.60;;
9124;SDS011;4597;48.730;9.114;2023-04-01T23:16:45;0.53;;;0.53;;
9124;SDS011;4597;48.730;9.114;2023-04-01T23:19:23;0.60;;;0.60;;
9124;SDS011;4597;48.730;9.114;2023-04-01T23:21:59;0.70;;;0.70;;
9124;SDS011;4597;48.730;9.114;2023-04-01T23:24:46;0.50;;;0.50;;
9124;SDS011;4597;48.730;9.114;2023-04-01T23:27:23;0.60;;;0.60;;
9124;SDS011;4597;48.730;9.114;2023-04-01T23:30:01;1.07;;;0.90;;
9124;SDS011;4597;48.730;9.114;2023-04-01T23:32:28;1.63;;;0.70;;
9124;SDS011;4597;48.730;9.114;2023-04-01T23:34:55;1.33;;;0.80;;
9124;SDS011;4597;48.730;9.114;2023-04-01T23:37:25;1.70;;;0.60;;
9124;SDS011;4597;48.730;9.114;2023-04-01T23:39:52;0.70;;;0.70;;
9124;SDS011;4597;48.730;9.114;2023-04-01T23:44:55;0.70;;;0.70;;
9124;SDS011;4597;48.730;9.114;2023-04-01T23:47:27;0.83;;;0.70;;
9124;SDS011;4597;48.730;9.114;2023-04-01T23:49:58;2.13;;;0.50;;
9124;SDS011;4597;48.730;9.114;2023-04-01T23:52:27;1.13;;;0.60;;
9124;SDS011;4597;48.730;9.114;2023-04-01T23:57:33;1.63;;;0.83;;
